Time;durP1;ratioP1;P1;durP2;ratioP2;P2;SDS_P1;SDS_P2;PMS_P1;PMS_P2;Temp;Humidity;BMP_temperature;BMP_pressure;BME280_temperature;BME280_humidity;BME280_pressure;Samples;Min_cycle;Max_cycle;Signal;HPM_P1;HPM_P2
2022/09/23 00:01:34;;;;;;;;;16.67;16.00;;;;;12.74;66.22;101343.47;5079960;27;45330;-77
2022/09/23 00:03:59;;;;;;;;;17.33;16.67;;;;;12.77;66.02;101347.59;5080240;27;45346;-77
2022/09/23 00:06:28;;;;;;;;;17.00;17.00;;;;;12.76;65.76;101346.78;5079587;27;45308;-77
2022/09/23 00:08:54;;;;;;;;;16.33;15.67;;;;;12.69;66.37;101346.63;5079829;27;45556;-76
2022/09/23 00:11:22;;;;;;;;;14.33;14.33;;;;;12.70;66.15;101347.47;5078381;28;45863;-76
2022/09/23 00:13:50;;;;;;;;;18.33;17.67;;;;;12.71;66.79;101349.97;5079614;27;45288;-77
2022/09/23 00:16:24;;;;;;;;;15.00;15.00;;;;;12.74;66.46;101357.63;5082091;27;46093;-77
2022/09/23 00:18:49;;;;;;;;;18.67;16.00;;;;;12.69;66.52;101349.31;5078230;28;46504;-77
2022/09/23 00:21:16;;;;;;;;;18.67;16.67;;;;;12.75;66.60;101356.63;5078241;28;45185;-77
2022/09/23 00:23:42;;;;;;;;;18.67;16.33;;;;;12.76;66.59;101352.13;5079580;27;45514;-77
2022/09/23 00:26:11;;;;;;;;;18.00;18.00;;;;;12.75;66.77;101356.63;5079469;27;45805;-77
2022/09/23 00:28:37;;;;;;;;;17.67;16.33;;;;;12.78;66.48;101350.09;5079069;27;46433;-77
2022/09/23 00:31:22;;;;;;;;;18.00;17.33;;;;;12.79;66.64;101353.59;5079513;27;45465;-78
2022/09/23 00:33:55;;;;;;;;;16.67;15.67;;;;;12.74;66.74;101336.31;5078121;28;45467;-77
2022/09/23 00:36:21;;;;;;;;;15.00;14.00;;;;;12.73;66.71;101339.13;5079454;27;45346;-76
2022/09/23 00:38:46;;;;;;;;;16.67;15.00;;;;;12.66;66.82;101322.16;5078214;27;45370;-77
2022/09/23 00:41:14;;;;;;;;;12.00;11.67;;;;;12.73;66.48;101339.13;5078129;28;45362;-76
2022/09/23 00:43:40;;;;;;;;;13.33;12.00;;;;;12.72;66.13;101340.97;5079320;28;45332;-77
2022/09/23 00:46:08;;;;;;;;;13.67;12.33;;;;;12.66;66.27;101330.19;5078962;27;45224;-77
2022/09/23 00:48:36;;;;;;;;;12.00;12.00;;;;;12.70;66.87;101335.00;5079351;28;45393;-77
2022/09/23 00:51:01;;;;;;;;;14.67;14.67;;;;;12.67;66.80;101327.34;5077722;28;45442;-76
2022/09/23 00:53:27;;;;;;;;;15.00;13.00;;;;;12.60;67.02;101310.38;5079145;27;45235;-77
2022/09/23 00:56:00;;;;;;;;;12.33;11.67;;;;;12.55;67.50;101304.72;5079070;28;45295;-77
2022/09/23 00:58:30;;;;;;;;;13.67;13.33;;;;;12.61;67.33;101323.50;5079226;27;46485;-77
2022/09/23 01:00:58;;;;;;;;;16.00;13.67;;;;;12.72;67.08;101316.97;5079070;27;45260;-76
2022/09/23 01:03:23;;;;;;;;;11.00;11.00;;;;;12.73;66.89;101315.97;5060903;28;45371;-76
2022/09/23 01:05:49;;;;;;;;;13.00;13.00;;;;;12.71;66.87;101303.78;5077498;28;47348;-77
2022/09/23 01:08:15;;;;;;;;;12.33;12.33;;;;;12.73;67.00;101305.31;5078777;27;45466;-77
2022/09/23 01:11:17;;;;;;;;;10.00;10.00;;;;;12.73;67.37;101313.31;5079122;28;45424;-77
2022/09/23 01:14:18;;;;;;;;;12.00;11.33;;;;;12.54;67.36;101298.53;5066170;28;45370;-77
2022/09/23 01:16:44;;;;;;;;;13.67;13.00;;;;;12.71;67.08;101315.31;5081242;27;46128;-77
2022/09/23 01:19:33;;;;;;;;;11.00;11.00;;;;;12.73;67.20;101307.13;5077318;28;47091;-76
2022/09/23 01:22:35;;;;;;;;;11.00;11.00;;;;;12.74;67.33;101316.78;5078978;27;45409;-77
2022/09/23 01:25:25;;;;;;;;;11.00;11.00;;;;;12.58;67.68;101307.88;5078768;28;45309;-76
2022/09/23 01:28:29;;;;;;;;;12.67;12.00;;;;;12.59;66.95;101303.34;5077165;28;47647;-76
2022/09/23 01:31:17;;;;;;;;;11.33;11.33;;;;;12.57;67.87;101308.06;5077581;28;45428;-77
2022/09/23 01:34:01;;;;;;;;;11.00;11.00;;;;;12.53;67.50;101298.72;5075244;28;45450;-77
2022/09/23 01:36:47;;;;;;;;;11.67;11.67;;;;;12.54;67.75;101297.72;5078970;27;45350;-77
2022/09/23 01:39:35;;;;;;;;;13.00;13.00;;;;;12.49;67.92;101295.59;5078301;28;45318;-76
2022/09/23 01:42:29;;;;;;;;;11.67;9.00;;;;;12.46;67.93;101293.25;5078407;28;45564;-77
2022/09/23 01:45:06;;;;;;;;;12.33;12.33;;;;;12.39;68.02;101277.09;5067842;28;45232;-77
2022/09/23 01:47:38;;;;;;;;;11.33;11.33;;;;;12.40;67.98;101280.63;5078509;27;45537;-77
2022/09/23 01:53:01;;;;;;;;;12.00;12.00;;;;;12.37;68.05;101285.28;5081550;28;45855;-77
2022/09/23 01:55:35;;;;;;;;;12.67;12.00;;;;;12.38;68.13;101288.78;5080576;28;45286;-77
2022/09/23 01:58:07;;;;;;;;;13.00;12.00;;;;;12.32;68.34;101278.81;5081709;27;45286;-76
2022/09/23 02:00:39;;;;;;;;;12.00;12.00;;;;;12.29;68.41;101276.47;5081865;27;45264;-76
2022/09/23 02:03:18;;;;;;;;;11.00;11.00;;;;;12.24;68.55;101263.66;5080165;28;47427;-77
2022/09/23 02:05:51;;;;;;;;;14.67;13.00;;;;;12.32;68.62;101274.31;5081737;27;45284;-76
2022/09/23 02:08:22;;;;;;;;;13.33;12.33;;;;;12.30;68.55;101267.50;5066163;28;45323;-76
2022/09/23 02:10:47;;;;;;;;;13.00;12.00;;;;;12.34;68.99;101279.47;5081562;27;45592;-77
2022/09/23 02:13:28;;;;;;;;;12.00;11.67;;;;;12.32;68.76;101278.81;5080963;28;46558;-76
2022/09/23 02:16:00;;;;;;;;;10.67;10.67;;;;;12.22;69.16;101276.34;5084123;27;45348;-77
2022/09/23 02:18:32;;;;;;;;;11.00;11.00;;;;;12.20;69.24;101279.19;5080564;27;45930;-77
2022/09/23 02:21:05;;;;;;;;;15.67;15.00;;;;;12.24;69.11;101277.84;5079995;28;47355;-76
2022/09/23 02:23:41;;;;;;;;;14.00;13.67;;;;;12.29;69.08;101281.81;5079840;28;47523;-76
2022/09/23 02:26:30;;;;;;;;;11.67;11.00;;;;;12.29;69.25;101277.31;5079955;28;46032;-77
2022/09/23 02:29:19;;;;;;;;;15.67;14.00;;;;;12.31;69.52;101290.47;5081080;27;45307;-77
2022/09/23 02:32:00;;;;;;;;;13.33;12.33;;;;;12.30;69.23;101288.81;5079906;28;46358;-76
2022/09/23 02:34:52;;;;;;;;;11.33;11.00;;;;;12.31;69.18;101278.00;5079820;28;47177;-77
2022/09/23 02:37:36;;;;;;;;;11.33;11.33;;;;;12.32;69.54;101270.81;5079191;28;46065;-77
2022/09/23 02:40:22;;;;;;;;;11.00;11.00;;;;;12.42;68.91;101271.44;5081366;27;45425;-77
2022/09/23 02:43:09;;;;;;;;;13.00;11.67;;;;;12.48;69.11;101281.41;5065731;28;46293;-77
2022/09/23 02:45:37;;;;;;;;;13.00;11.33;;;;;12.48;68.80;101270.75;5080765;28;45606;-76
2022/09/23 02:48:26;;;;;;;;;10.00;10.00;;;;;12.51;68.99;101274.88;5081147;27;45331;-77
2022/09/23 02:50:52;;;;;;;;;13.67;12.33;;;;;12.51;68.75;101269.56;5080969;27;45425;-77
2022/09/23 02:53:17;;;;;;;;;14.00;12.33;;;;;12.41;68.16;101264.44;5080920;27;45239;-77
2022/09/23 02:55:43;;;;;;;;;14.33;13.00;;;;;12.41;68.55;101268.94;5081070;27;46538;-76
2022/09/23 02:58:12;;;;;;;;;12.00;12.00;;;;;12.36;69.07;101272.13;5079369;28;45657;-77
2022/09/23 03:01:31;;;;;;;;;12.00;12.00;;;;;12.37;69.06;101269.28;5080965;27;45295;-77
2022/09/23 03:04:14;;;;;;;;;10.67;10.67;;;;;12.32;69.51;101262.81;5021505;28;46311;-77
2022/09/23 03:06:53;;;;;;;;;12.33;12.33;;;;;12.31;69.57;101269.16;5079185;28;47343;-77
2022/09/23 03:09:28;;;;;;;;;15.33;15.00;;;;;12.42;69.62;101266.09;5079135;28;45455;-77
2022/09/23 03:12:30;;;;;;;;;15.00;13.00;;;;;12.48;69.44;101269.94;5079316;28;45365;-77
2022/09/23 03:15:17;;;;;;;;;12.67;12.67;;;;;12.51;69.07;101261.56;5079835;27;45176;-77
2022/09/23 03:18:14;;;;;;;;;12.67;11.00;;;;;12.47;69.63;101254.91;5082926;27;47688;-77
2022/09/23 03:20:55;;;;;;;;;12.00;11.00;;;;;12.48;69.07;101257.41;5080437;28;45421;-76
2022/09/23 03:23:27;;;;;;;;;13.00;12.33;;;;;12.50;69.69;101258.09;5079012;28;45228;-77
2022/09/23 03:25:56;;;;;;;;;12.00;12.00;;;;;12.47;69.13;101252.25;5080620;28;45469;-77
2022/09/23 03:28:24;;;;;;;;;11.67;11.67;;;;;12.52;69.24;101260.56;5080191;27;45350;-77
2022/09/23 03:30:51;;;;;;;;;12.00;12.00;;;;;12.58;69.42;101267.88;5078954;28;45741;-76
2022/09/23 03:33:21;;;;;;;;;12.00;10.67;;;;;12.57;69.16;101254.72;5080560;27;45378;-77
2022/09/23 03:39:13;;;;;;;;;11.00;11.00;;;;;12.53;69.28;101240.91;5063057;28;45304;-77
2022/09/23 03:41:49;;;;;;;;;11.67;11.67;;;;;12.53;69.34;101230.22;5078844;28;45735;-77
2022/09/23 03:44:16;;;;;;;;;11.33;11.33;;;;;12.52;69.41;101247.25;5080105;27;45428;-77
2022/09/23 03:46:48;;;;;;;;;10.00;9.00;;;;;12.55;69.07;101238.06;5079990;27;45431;-77
2022/09/23 03:49:17;;;;;;;;;11.00;11.00;;;;;12.56;69.15;101242.38;5079691;27;46263;-77
2022/09/23 03:51:42;;;;;;;;;12.00;10.00;;;;;12.56;69.38;101240.56;5079892;27;45419;-77
2022/09/23 03:54:07;;;;;;;;;14.67;14.67;;;;;12.54;69.22;101236.41;5079958;27;45400;-77
2022/09/23 03:56:33;;;;;;;;;13.00;11.67;;;;;12.55;69.28;101246.06;5080168;27;45271;-77
2022/09/23 03:58:58;;;;;;;;;10.00;10.00;;;;;12.54;68.98;101244.41;5079778;27;49417;-77
2022/09/23 04:01:23;;;;;;;;;11.00;11.00;;;;;12.54;69.29;101239.88;5078600;28;45370;-77
2022/09/23 04:03:51;;;;;;;;;11.00;11.00;;;;;12.57;69.07;101252.88;5078704;28;45166;-77
2022/09/23 04:06:16;;;;;;;;;17.00;14.00;;;;;12.57;69.32;101258.19;5079769;28;45345;-77
2022/09/23 04:08:42;;;;;;;;;11.67;11.67;;;;;12.38;69.80;101243.47;5078327;28;46981;-78
2022/09/23 04:11:07;;;;;;;;;13.00;13.00;;;;;12.50;69.77;101268.75;5078284;28;47288;-78
2022/09/23 04:13:32;;;;;;;;;11.67;10.67;;;;;12.44;69.59;101273.94;5078799;27;45264;-78
2022/09/23 04:15:58;;;;;;;;;14.00;11.00;;;;;12.46;69.95;101275.44;5082765;27;45376;-77
2022/09/23 04:18:23;;;;;;;;;9.67;8.67;;;;;12.38;70.03;101275.47;5080326;27;45430;-77
2022/09/23 04:20:48;;;;;;;;;11.00;10.00;;;;;12.34;70.37;101269.66;5079734;27;45306;-76
2022/09/23 04:23:14;;;;;;;;;7.00;5.33;;;;;12.32;70.02;101260.16;5078446;28;45275;-77
2022/09/23 04:25:44;;;;;;;;;14.67;13.00;;;;;12.27;70.18;101250.00;5079525;27;45360;-79
2022/09/23 04:28:09;;;;;;;;;12.67;12.67;;;;;12.31;70.16;101262.00;5079517;27;45402;-77
2022/09/23 04:30:42;;;;;;;;;10.00;8.67;;;;;12.30;69.99;101259.50;5078092;28;45926;-77
2022/09/23 04:33:08;;;;;;;;;10.33;10.33;;;;;12.30;70.10;101259.50;5079857;27;45349;-78
2022/09/23 04:35:34;;;;;;;;;10.00;10.00;;;;;12.23;70.43;101252.19;5079289;27;45424;-77
2022/09/23 04:37:59;;;;;;;;;9.67;9.00;;;;;12.30;70.34;101273.66;5079337;27;45414;-77
2022/09/23 04:40:24;;;;;;;;;10.67;10.67;;;;;12.26;70.40;101264.34;5078038;28;45394;-78
2022/09/23 04:42:50;;;;;;;;;12.00;11.00;;;;;12.24;70.43;101259.19;5079553;27;45345;-78
2022/09/23 04:45:15;;;;;;;;;11.00;10.33;;;;;12.29;70.49;101261.34;5079121;27;45305;-77
2022/09/23 04:47:40;;;;;;;;;12.67;12.00;;;;;12.27;70.42;101263.34;5077713;28;48649;-78
2022/09/23 04:50:06;;;;;;;;;10.33;9.67;;;;;12.29;70.66;101252.50;5079397;27;45458;-77
2022/09/23 04:52:31;;;;;;;;;9.33;9.33;;;;;12.27;70.97;101246.53;5077736;28;45456;-78
2022/09/23 04:54:57;;;;;;;;;10.67;10.00;;;;;12.28;70.36;101248.19;5079313;27;45432;-77
2022/09/23 04:57:23;;;;;;;;;10.00;10.00;;;;;12.27;70.43;101246.53;5079070;27;45297;-77
2022/09/23 04:59:48;;;;;;;;;9.00;9.00;;;;;12.32;70.68;101254.81;5079220;27;45444;-77
2022/09/23 05:02:14;;;;;;;;;11.33;10.67;;;;;12.26;70.42;101251.03;5077697;28;45419;-78
2022/09/23 05:04:40;;;;;;;;;13.00;13.00;;;;;12.25;70.66;101252.03;5077533;28;46272;-77
2022/09/23 05:07:06;;;;;;;;;10.00;10.00;;;;;12.29;70.39;101248.00;5077474;28;47159;-77
2022/09/23 05:09:31;;;;;;;;;10.00;8.33;;;;;12.22;70.56;101234.53;5078745;28;45346;-78
2022/09/23 05:11:56;;;;;;;;;10.67;10.67;;;;;12.21;70.65;101232.88;5077908;28;45406;-77
2022/09/23 05:14:22;;;;;;;;;12.00;11.00;;;;;12.26;70.66;101237.69;5078671;27;45445;-77
2022/09/23 05:16:47;;;;;;;;;9.33;9.33;;;;;12.21;70.84;101216.06;5082566;27;46143;-77
2022/09/23 05:19:12;;;;;;;;;10.00;10.00;;;;;12.28;70.65;101237.53;5077513;28;45413;-78
2022/09/23 05:21:38;;;;;;;;;8.00;8.00;;;;;12.28;70.51;101234.84;5079174;27;45457;-78
2022/09/23 05:24:03;;;;;;;;;10.67;10.67;;;;;12.20;70.82;101228.56;5071410;28;50784;-77
2022/09/23 05:26:31;;;;;;;;;9.33;9.33;;;;;12.18;70.59;101227.09;5073802;28;45363;-76
2022/09/23 05:28:57;;;;;;;;;10.67;10.00;;;;;12.23;71.04;101228.22;5081861;28;45330;-77
2022/09/23 05:31:25;;;;;;;;;11.33;11.00;;;;;12.21;71.01;101227.56;5081101;28;45394;-75
2022/09/23 05:33:53;;;;;;;;;10.00;9.00;;;;;12.25;71.01;101236.03;5081868;27;45503;-76
2022/09/23 05:36:20;;;;;;;;;10.33;10.33;;;;;12.23;71.21;101238.88;5082135;27;46804;-76
2022/09/23 05:38:48;;;;;;;;;9.67;8.67;;;;;12.20;71.11;101231.22;5081870;27;45354;-77
2022/09/23 05:41:13;;;;;;;;;11.67;10.00;;;;;12.16;71.18;101224.59;5081020;28;45446;-77
2022/09/23 05:43:40;;;;;;;;;9.33;9.33;;;;;12.19;71.09;101237.56;5081908;28;45502;-76
2022/09/23 05:46:08;;;;;;;;;11.33;11.00;;;;;12.19;71.00;101237.56;5080690;28;46121;-76
2022/09/23 05:48:35;;;;;;;;;13.00;13.00;;;;;12.19;71.28;101240.22;5082132;27;45325;-77
2022/09/23 05:51:00;;;;;;;;;10.00;10.00;;;;;12.11;71.72;101234.91;5081982;27;45239;-79
2022/09/23 05:53:28;;;;;;;;;13.00;11.00;;;;;12.10;71.97;101233.28;5081830;27;45738;-78
2022/09/23 05:55:56;;;;;;;;;10.67;10.67;;;;;12.08;71.75;101230.78;5080025;28;47536;-78
2022/09/23 05:58:23;;;;;;;;;9.33;9.33;;;;;12.04;71.66;101217.94;5081742;28;45374;-78
2022/09/23 06:00:49;;;;;;;;;9.67;9.00;;;;;12.16;71.54;101245.91;5080378;28;45498;-79
2022/09/23 06:03:16;;;;;;;;;9.67;9.00;;;;;12.17;72.04;101247.56;5081498;27;45244;-78
2022/09/23 06:05:41;;;;;;;;;11.33;11.33;;;;;12.19;71.87;101245.56;5081462;27;46343;-77
2022/09/23 06:08:08;;;;;;;;;10.00;10.00;;;;;12.24;72.04;101247.69;5081659;27;45367;-79
2022/09/23 06:10:41;;;;;;;;;12.67;11.00;;;;;12.26;71.70;101235.03;5079111;27;45535;-79
2022/09/23 06:13:07;;;;;;;;;11.33;10.00;;;;;12.26;72.06;101243.03;5080814;27;45829;-79
2022/09/23 06:15:33;;;;;;;;;10.33;10.33;;;;;12.24;72.23;101247.69;5080847;27;46782;-79
2022/09/23 06:17:59;;;;;;;;;13.67;11.67;;;;;12.33;72.45;101245.84;5081367;27;45352;-79
2022/09/23 06:20:25;;;;;;;;;10.00;9.33;;;;;12.39;72.07;101246.97;5078527;28;45466;-78
2022/09/23 06:22:51;;;;;;;;;11.67;11.67;;;;;12.39;72.04;101239.78;5076791;27;47298;-79
2022/09/23 06:25:18;;;;;;;;;14.67;12.67;;;;;12.37;72.29;101236.50;5081071;28;46495;-79
2022/09/23 06:27:53;;;;;;;;;12.67;12.00;;;;;12.46;72.85;101245.28;5081696;27;45243;-79
2022/09/23 06:30:18;;;;;;;;;12.67;11.00;;;;;12.48;72.63;101245.94;5079926;28;45253;-79
2022/09/23 06:32:48;;;;;;;;;11.33;11.33;;;;;12.55;72.46;101246.06;5079724;28;46481;-78
2022/09/23 06:35:14;;;;;;;;;13.00;13.00;;;;;12.60;72.30;101260.53;5079955;28;47856;-79
2022/09/23 06:37:39;;;;;;;;;10.00;10.00;;;;;12.67;72.15;101255.34;5080075;27;45480;-79
2022/09/23 06:40:05;;;;;;;;;14.33;14.33;;;;;12.72;72.02;101246.81;5079966;28;45471;-79
2022/09/23 06:42:30;;;;;;;;;15.33;14.67;;;;;12.79;72.04;101254.91;5079830;28;45898;-81
2022/09/23 06:44:55;;;;;;;;;14.67;14.67;;;;;12.76;72.03;101237.44;5079486;28;46902;-77
2022/09/23 06:47:20;;;;;;;;;13.00;13.00;;;;;12.93;72.28;101240.81;5080847;27;45476;-77
2022/09/23 06:49:46;;;;;;;;;15.33;14.33;;;;;13.02;72.23;101243.44;5081566;27;45374;-78
2022/09/23 06:52:11;;;;;;;;;13.67;13.67;;;;;13.04;72.27;101236.06;5079702;28;46977;-78
2022/09/23 06:54:37;;;;;;;;;15.33;12.33;;;;;13.09;72.28;101245.22;5080691;27;45837;-77
2022/09/23 06:57:02;;;;;;;;;16.00;14.00;;;;;13.12;72.23;101250.19;5081046;28;45896;-78
2022/09/23 06:59:27;;;;;;;;;15.00;13.33;;;;;13.18;71.78;101243.31;5080615;27;45854;-78
2022/09/23 07:01:53;;;;;;;;;14.00;11.33;;;;;13.20;71.75;101238.59;5080936;27;45412;-77
2022/09/23 07:04:18;;;;;;;;;12.33;11.67;;;;;13.35;71.29;101260.00;5078405;28;45952;-78
2022/09/23 07:06:43;;;;;;;;;11.67;9.33;;;;;13.38;71.15;101246.31;5096575;27;45404;-77
2022/09/23 07:09:09;;;;;;;;;9.00;9.00;;;;;13.47;71.55;101254.25;5080886;27;45236;-75
2022/09/23 07:11:36;;;;;;;;;18.33;13.67;;;;;13.53;70.90;101250.06;5079900;27;45443;-77
2022/09/23 07:14:02;;;;;;;;;14.00;13.33;;;;;13.47;71.08;101233.69;5077868;27;46527;-76
2022/09/23 07:16:27;;;;;;;;;16.00;14.33;;;;;13.66;70.87;101260.09;5092120;27;45922;-77
2022/09/23 07:18:52;;;;;;;;;14.33;13.33;;;;;13.71;70.57;101258.53;5060103;28;45489;-76
2022/09/23 07:21:18;;;;;;;;;16.33;16.33;;;;;13.71;70.52;101237.16;5060016;28;45429;-76
2022/09/23 07:23:45;;;;;;;;;14.00;14.00;;;;;13.85;70.53;101248.88;5062987;28;45441;-76
2022/09/23 07:26:12;;;;;;;;;17.67;15.00;;;;;14.00;70.39;101243.53;5076876;28;45354;-78
2022/09/23 07:28:38;;;;;;;;;19.33;17.00;;;;;14.03;70.56;101260.25;5078906;28;45309;-77
2022/09/23 07:31:06;;;;;;;;;14.33;14.00;;;;;13.99;70.35;101255.25;5079125;28;45475;-77
2022/09/23 07:33:33;;;;;;;;;17.67;17.67;;;;;14.03;70.67;101249.53;5079120;27;45401;-78
2022/09/23 07:36:07;;;;;;;;;16.00;15.00;;;;;14.13;70.66;101253.56;5080190;27;45334;-78
2022/09/23 07:38:33;;;;;;;;;26.00;25.67;;;;;14.12;70.32;101248.41;5078991;28;45220;-78
2022/09/23 07:41:07;;;;;;;;;24.00;24.00;;;;;14.26;70.33;101260.97;5078739;28;47391;-77
2022/09/23 07:43:33;;;;;;;;;28.00;27.00;;;;;14.36;70.19;101257.97;5077807;27;45384;-77
2022/09/23 07:46:07;;;;;;;;;46.50;38.75;;;;;14.45;69.99;101244.50;5080131;27;45335;-76
2022/09/23 07:48:33;;;;;;;;;42.25;35.25;;;;;14.44;69.84;101237.50;5076871;27;45499;-76
2022/09/23 07:50:59;;;;;;;;;36.00;31.25;;;;;14.55;69.22;101239.69;5074735;27;45286;-76
2022/09/23 07:53:25;;;;;;;;;25.67;25.33;;;;;14.61;68.93;101246.94;5093065;27;47313;-75
2022/09/23 07:55:55;;;;;;;;;27.33;27.33;;;;;14.72;68.98;101247.47;5080000;27;45309;-76
2022/09/23 07:58:21;;;;;;;;;31.33;30.33;;;;;14.81;68.68;101254.38;5078682;28;45459;-76
2022/09/23 08:00:47;;;;;;;;;33.00;30.00;;;;;14.88;68.79;101251.81;5077421;27;45532;-77
2022/09/23 08:03:13;;;;;;;;;33.67;31.67;;;;;14.94;68.55;101245.69;5079491;28;46476;-75
2022/09/23 08:05:38;;;;;;;;;28.67;27.67;;;;;14.94;68.58;101226.97;5079693;28;45297;-76
2022/09/23 08:08:05;;;;;;;;;28.67;28.33;;;;;15.10;69.25;101241.06;5079317;27;45280;-77
2022/09/23 08:10:31;;;;;;;;;25.00;25.00;;;;;15.17;68.98;101233.94;5078365;28;47165;-76
2022/09/23 08:12:58;;;;;;;;;17.33;17.33;;;;;15.29;68.34;101238.78;5078891;27;45480;-76
2022/09/23 08:15:24;;;;;;;;;17.67;16.33;;;;;15.40;68.00;101244.44;5079636;27;45350;-77
2022/09/23 08:17:49;;;;;;;;;13.00;13.00;;;;;15.47;67.35;101240.97;5083171;27;45254;-76
2022/09/23 08:20:43;;;;;;;;;16.33;16.33;;;;;15.51;67.37;101253.75;5078155;28;45717;-76
2022/09/23 08:23:01;;;;;;;;;12.00;10.00;;;;;15.67;66.64;101262.53;5079022;27;45244;-75
2022/09/23 08:25:26;;;;;;;;;11.67;10.33;;;;;15.71;66.66;101263.00;5077022;27;45454;-75
2022/09/23 08:27:52;;;;;;;;;9.33;9.33;;;;;15.79;65.70;101262.81;5079305;27;45341;-75
2022/09/23 08:30:17;;;;;;;;;11.33;9.33;;;;;15.83;65.58;101263.28;5078954;27;45227;-74
2022/09/23 08:32:42;;;;;;;;;10.00;9.33;;;;;15.94;65.46;101264.56;5078117;28;48322;-76
2022/09/23 08:35:08;;;;;;;;;12.33;11.67;;;;;15.92;65.60;101259.38;5079526;27;45231;-76
2022/09/23 08:37:33;;;;;;;;;9.67;8.00;;;;;15.96;64.95;101260.72;5079641;27;45440;-76
2022/09/23 08:39:58;;;;;;;;;9.67;7.33;;;;;15.99;64.85;101257.63;5078046;28;45544;-76
2022/09/23 08:42:31;;;;;;;;;7.00;7.00;;;;;16.19;64.46;101277.53;5079262;27;45340;-76
2022/09/23 08:45:01;;;;;;;;;6.00;6.00;;;;;16.19;63.94;101262.25;5079431;27;45280;-76
2022/09/23 08:47:45;;;;;;;;;6.00;5.00;;;;;16.36;64.29;101276.16;5079300;27;45368;-76
2022/09/23 08:50:21;;;;;;;;;8.00;8.00;;;;;16.45;63.27;101275.97;5079315;28;45519;-77
2022/09/23 08:52:51;;;;;;;;;6.00;6.00;;;;;16.45;62.56;101263.41;5064913;28;46305;-76
2022/09/23 08:55:18;;;;;;;;;7.67;5.67;;;;;16.53;62.40;101265.88;5079303;27;45326;-78
2022/09/23 08:58:20;;;;;;;;;7.67;7.67;;;;;16.64;62.18;101267.16;5077607;28;45467;-78
2022/09/23 09:00:58;;;;;;;;;7.00;7.00;;;;;16.69;61.73;101260.34;5080998;27;46092;-77
2022/09/23 09:03:30;;;;;;;;;9.00;7.67;;;;;16.74;61.56;101253.38;5078831;28;47228;-77
2022/09/23 09:05:57;;;;;;;;;9.00;8.00;;;;;16.88;61.26;101261.47;5082908;27;45374;-77
2022/09/23 09:08:32;;;;;;;;;10.67;9.33;;;;;16.87;61.19;101249.88;5082502;27;45350;-78
2022/09/23 09:10:57;;;;;;;;;10.67;9.33;;;;;16.95;60.70;101251.56;5080917;28;48436;-78
2022/09/23 09:13:29;;;;;;;;;10.67;10.67;;;;;17.09;60.58;101265.81;5082075;27;45720;-78
2022/09/23 09:16:37;;;;;;;;;11.33;10.00;;;;;17.21;61.20;101262.56;5085319;27;45882;-78
2022/09/23 09:19:10;;;;;;;;;9.00;9.00;;;;;17.28;61.70;101272.28;5070162;28;45411;-78
2022/09/23 09:21:41;;;;;;;;;9.67;9.67;;;;;17.36;61.53;101278.47;5082276;27;46146;-78
2022/09/23 09:24:16;;;;;;;;;10.00;10.00;;;;;17.35;59.95;101266.03;5080837;28;48338;-78
2022/09/23 09:26:41;;;;;;;;;10.33;9.00;;;;;17.35;60.21;101269.56;5082404;27;45468;-78
2022/09/23 09:29:14;;;;;;;;;10.00;8.33;;;;;17.40;60.33;101260.91;5082180;27;45281;-78
2022/09/23 09:31:47;;;;;;;;;13.33;11.67;;;;;17.48;60.25;101266.03;5080607;27;45336;-78
2022/09/23 09:34:27;;;;;;;;;12.00;11.00;;;;;17.51;59.92;101262.94;5079937;28;48606;-78
2022/09/23 09:37:05;;;;;;;;;11.67;11.67;;;;;17.54;60.62;101249.09;5082204;27;45418;-78
2022/09/23 09:39:31;;;;;;;;;11.67;11.00;;;;;17.64;60.98;101258.59;5082350;27;45271;-81
2022/09/23 09:41:58;;;;;;;;;8.00;8.00;;;;;17.62;60.36;101249.91;5081887;27;45336;-81
2022/09/23 09:44:49;;;;;;;;;11.00;10.00;;;;;17.70;60.25;101247.00;5081619;27;47030;-80
2022/09/23 09:47:29;;;;;;;;;8.33;8.33;;;;;17.75;59.92;101238.31;5058596;28;45405;-80
2022/09/23 09:50:02;;;;;;;;;7.33;7.33;;;;;17.79;59.57;101235.00;5084817;27;45580;-82
2022/09/23 09:52:28;;;;;;;;;10.00;8.33;;;;;17.95;59.55;101240.94;5095040;27;47955;-79
2022/09/23 09:55:16;;;;;;;;;10.00;8.00;;;;;17.95;59.46;101226.66;5079968;27;46330;-81
2022/09/23 09:57:49;;;;;;;;;11.00;11.00;;;;;18.04;58.94;101230.78;5076625;27;45382;-75
2022/09/23 10:00:20;;;;;;;;;8.67;7.00;;;;;18.19;58.46;101240.50;5080160;27;45702;-74
2022/09/23 10:02:46;;;;;;;;;10.00;9.00;;;;;18.22;57.61;101235.50;5068616;27;45456;-74
2022/09/23 10:05:28;;;;;;;;;9.00;9.00;;;;;18.31;58.64;101238.78;5074516;27;46337;-75
2022/09/23 10:07:54;;;;;;;;;9.00;9.00;;;;;18.42;58.83;101224.66;5071082;28;45382;-76
2022/09/23 10:10:23;;;;;;;;;8.67;8.00;;;;;18.63;58.17;101228.06;5077958;28;45428;-76
2022/09/23 10:12:51;;;;;;;;;8.00;7.00;;;;;18.83;58.38;101228.97;5076234;28;46915;-76
2022/09/23 10:15:32;;;;;;;;;8.00;8.00;;;;;19.03;57.56;101223.41;5079136;27;45987;-75
2022/09/23 10:18:01;;;;;;;;;9.67;8.33;;;;;19.16;57.26;101212.56;5087423;27;45390;-76
2022/09/23 10:20:35;;;;;;;;;10.00;8.00;;;;;19.41;57.41;101219.81;5079610;28;45462;-76
2022/09/23 10:23:13;;;;;;;;;8.33;8.33;;;;;19.63;56.38;101223.97;5079495;28;46237;-75
2022/09/23 10:25:40;;;;;;;;;12.00;10.00;;;;;19.85;56.51;101223.53;5080682;27;45416;-76
2022/09/23 10:28:37;;;;;;;;;11.00;11.00;;;;;20.06;55.42;101224.97;5080120;27;45327;-74
2022/09/23 10:31:10;;;;;;;;;9.33;8.33;;;;;20.22;54.82;101214.59;5068429;28;45410;-74
2022/09/23 10:33:41;;;;;;;;;8.67;8.67;;;;;20.33;53.82;101213.00;5081022;27;45478;-74
2022/09/23 10:36:10;;;;;;;;;9.00;9.00;;;;;20.48;53.28;101221.53;5079159;28;47482;-75
2022/09/23 10:38:35;;;;;;;;;9.00;9.00;;;;;20.57;53.16;101213.91;5080393;27;45265;-75
2022/09/23 10:47:33;;;;;;;;;7.00;7.00;;;;;20.75;51.17;101204.94;5071914;28;45549;-77
2022/09/23 10:50:29;;;;;;;;;11.67;11.67;;;;;20.96;51.48;101205.47;5069224;28;45378;-76
2022/09/23 10:53:08;;;;;;;;;6.33;6.33;;;;;21.14;50.35;101204.53;5080251;28;45405;-74
2022/09/23 10:56:12;;;;;;;;;8.00;7.00;;;;;21.30;50.47;101194.91;5080954;27;45318;-76
2022/09/23 10:58:57;;;;;;;;;7.00;7.00;;;;;21.44;49.71;101197.34;5062384;28;47617;-76
2022/09/23 11:01:37;;;;;;;;;9.33;7.00;;;;;21.56;50.04;101202.75;5080715;27;45366;-76
2022/09/23 11:04:21;;;;;;;;;7.00;7.00;;;;;21.55;48.26;101190.31;5081023;27;45287;-75
2022/09/23 11:06:58;;;;;;;;;7.67;7.67;;;;;21.60;48.01;101189.56;5068296;28;45710;-75
2022/09/23 11:09:32;;;;;;;;;6.33;5.00;;;;;21.64;48.54;101190.75;5080618;27;45543;-77
2022/09/23 11:12:20;;;;;;;;;4.00;4.00;;;;;21.75;48.73;101189.06;5079521;28;46127;-75
2022/09/23 11:15:01;;;;;;;;;9.00;7.00;;;;;21.81;48.94;101180.84;5080453;27;45319;-75
2022/09/23 11:17:30;;;;;;;;;7.00;7.00;;;;;21.88;49.36;101179.91;5083129;27;46193;-75
2022/09/23 11:20:46;;;;;;;;;6.33;6.33;;;;;21.91;48.36;101180.22;5079008;28;48507;-76
2022/09/23 11:23:31;;;;;;;;;5.00;5.00;;;;;22.01;48.17;101182.34;5059500;27;45418;-75
2022/09/23 11:26:18;;;;;;;;;6.67;6.67;;;;;22.00;47.92;101179.88;5075492;28;45499;-79
2022/09/23 11:29:01;;;;;;;;;7.00;7.00;;;;;21.98;46.21;101169.28;5080158;27;45299;-77
2022/09/23 11:31:48;;;;;;;;;6.67;6.33;;;;;22.15;47.26;101173.94;5080455;27;45376;-75
2022/09/23 11:34:48;;;;;;;;;6.00;5.67;;;;;22.22;46.94;101174.59;5080461;28;45302;-76
2022/09/23 11:37:27;;;;;;;;;5.67;5.67;;;;;22.29;45.96;101169.84;5057794;28;45380;-75
2022/09/23 11:40:05;;;;;;;;;5.33;5.33;;;;;22.26;45.23;101167.63;5068128;27;46470;-74
2022/09/23 11:42:37;;;;;;;;;5.00;5.00;;;;;22.26;46.04;101162.22;5079284;28;46539;-76
2022/09/23 11:45:13;;;;;;;;;6.00;6.00;;;;;22.34;45.72;101163.72;5096155;27;45369;-75
2022/09/23 11:47:49;;;;;;;;;4.00;3.33;;;;;22.33;45.78;101157.47;5072970;27;45365;-76
2022/09/23 11:50:26;;;;;;;;;5.67;5.67;;;;;22.44;45.37;101154.94;5077895;28;45186;-75